WXM80 ListenWXM80 Stop

You find our weather info also at:

UK Metoffice

WeatherCloud

Weather Underground

Northeastern Weather Network

AWEKAS

Citizen Weather Observer Program (CWOP)

HAMweather, WeatherForYou, PWS Weather


Weather Underground History page Text

Daily Summary for January 29, 2017 Units:  Both    English   Metric
« Previous Day
Next Day »
Daily Weekly Monthly Yearly Custom
  High: Low: Average:
Temperature: 43.7 °F /  6.5 °C 30.1 °F /  -1.1 °C 36.2 °F /  2.3 °C
Dew Point: 29.5 °F /  -1.4 °C 18.6 °F /  -7.4 °C 23.6 °F /  -4.7 °C
Humidity: 82 % 38 % 62 %
Wind Speed: 11.0 mph /  17.7 km/h - 2.4 mph /  3.9 km/h
Wind Gust: 17.0 mph /  27.4 km/h - -
Wind:- - WSW
Pressure: 29.71 in /  1006 hPa 29.63 in /  1003.3 hPa -
Precipitation: 0.00 in /  0 mm    
Historical Graphs
 
 
Tabular Data for January 29, 2017
Time Temperature Dew Point Pressure Wind Wind Speed Wind Gust Humidity Rainfall Rate (Hourly)
00:04 34.6 °F /  1.4 °C 24.8 °F /  -4 °C 29.71 in /  1006 hPa SW 1.1 mph /  1.8 km/h 2.3 mph /  3.7 km/h 67 % 0.00 in /  0 mm
00:09 34.6 °F /  1.4 °C 25.1 °F /  -3.8 °C 29.70 in /  1005.6 hPa SSW 1.0 mph /  1.6 km/h 4.6 mph /  7.4 km/h 68 % 0.00 in /  0 mm
00:14 34.7 °F /  1.5 °C 24.9 °F /  -3.9 °C 29.70 in /  1005.6 hPa SSW 0.5 mph /  0.8 km/h 3.5 mph /  5.6 km/h 67 % 0.00 in /  0 mm
00:19 34.8 °F /  1.6 °C 25.3 °F /  -3.7 °C 29.70 in /  1005.6 hPa SW 0.9 mph /  1.4 km/h 2.3 mph /  3.7 km/h 68 % 0.00 in /  0 mm
00:24 34.8 °F /  1.6 °C 25.0 °F /  -3.9 °C 29.70 in /  1005.6 hPa SW 2.2 mph /  3.5 km/h 3.5 mph /  5.6 km/h 67 % 0.00 in /  0 mm
00:29 34.8 °F /  1.6 °C 25.3 °F /  -3.7 °C 29.70 in /  1005.6 hPa SW 0.5 mph /  0.8 km/h 1.2 mph /  1.9 km/h 68 % 0.00 in /  0 mm
00:39 34.7 °F /  1.5 °C 24.9 °F /  -3.9 °C 29.69 in /  1005.3 hPa Calm   1.2 mph /  1.9 km/h 67 % 0.00 in /  0 mm
00:44 34.7 °F /  1.5 °C 24.9 °F /  -3.9 °C 29.69 in /  1005.3 hPa Calm     67 % 0.00 in /  0 mm
00:49 34.6 °F /  1.4 °C 25.1 °F /  -3.8 °C 29.69 in /  1005.3 hPa Calm     68 % 0.00 in /  0 mm
00:54 34.5 °F /  1.4 °C 24.7 °F /  -4.1 °C 29.69 in /  1005.3 hPa Calm     67 % 0.00 in /  0 mm
00:59 34.3 °F /  1.3 °C 24.8 °F /  -4 °C 29.68 in /  1005 hPa Calm     68 % 0.00 in /  0 mm
01:04 34.2 °F /  1.2 °C 24.7 °F /  -4.1 °C 29.68 in /  1005 hPa Calm     68 % 0.00 in /  0 mm
01:09 34.0 °F /  1.1 °C 24.9 °F /  -3.9 °C 29.68 in /  1005 hPa Calm     69 % 0.00 in /  0 mm
01:14 33.8 °F /  1 °C 24.7 °F /  -4.1 °C 29.67 in /  1004.6 hPa Calm     69 % 0.00 in /  0 mm
01:19 33.5 °F /  0.8 °C 24.8 °F /  -4 °C 29.67 in /  1004.6 hPa Calm     70 % 0.00 in /  0 mm
01:24 33.2 °F /  0.7 °C 24.5 °F /  -4.2 °C 29.67 in /  1004.6 hPa Calm     70 % 0.00 in /  0 mm
01:30 33.0 °F /  0.6 °C 24.3 °F /  -4.3 °C 29.68 in /  1005 hPa Calm     70 % 0.00 in /  0 mm
01:35 32.7 °F /  0.4 °C 24.3 °F /  -4.3 °C 29.67 in /  1004.6 hPa Calm     71 % 0.00 in /  0 mm
01:40 32.5 °F /  0.3 °C 24.5 °F /  -4.2 °C 29.68 in /  1005 hPa SW 0.1 mph /  0.2 km/h 1.2 mph /  1.9 km/h 72 % 0.00 in /  0 mm
01:45 32.2 °F /  0.1 °C 24.2 °F /  -4.3 °C 29.68 in /  1005 hPa Calm     72 % 0.00 in /  0 mm
01:50 32.0 °F /  0 °C 24.3 °F /  -4.3 °C 29.68 in /  1005 hPa Calm     73 % 0.00 in /  0 mm
01:55 31.7 °F /  -0.2 °C 24.0 °F /  -4.4 °C 29.68 in /  1005 hPa Calm   1.0 mph /  1.6 km/h 73 % 0.00 in /  0 mm
02:00 31.6 °F /  -0.2 °C 24.3 °F /  -4.3 °C 29.68 in /  1005 hPa Calm     74 % 0.00 in /  0 mm
02:05 31.4 °F /  -0.3 °C 24.1 °F /  -4.4 °C 29.68 in /  1005 hPa Calm     74 % 0.00 in /  0 mm
02:10 31.2 °F /  -0.4 °C 23.9 °F /  -4.5 °C 29.68 in /  1005 hPa SW 0.4 mph /  0.6 km/h 2.3 mph /  3.7 km/h 74 % 0.00 in /  0 mm
02:15 31.1 °F /  -0.5 °C 24.1 °F /  -4.4 °C 29.68 in /  1005 hPa SW 0.5 mph /  0.8 km/h 2.3 mph /  3.7 km/h 75 % 0.00 in /  0 mm
02:25 31.0 °F /  -0.6 °C 24.3 °F /  -4.3 °C 29.68 in /  1005 hPa Calm   1.2 mph /  1.9 km/h 76 % 0.00 in /  0 mm
02:30 30.9 °F /  -0.6 °C 24.2 °F /  -4.3 °C 29.68 in /  1005 hPa Calm     76 % 0.00 in /  0 mm
02:40 30.8 °F /  -0.7 °C 24.7 °F /  -4.1 °C 29.68 in /  1005 hPa SSW 0.4 mph /  0.6 km/h 1.0 mph /  1.6 km/h 78 % 0.00 in /  0 mm
02:45 30.8 °F /  -0.7 °C 24.7 °F /  -4.1 °C 29.68 in /  1005 hPa SSW 0.4 mph /  0.6 km/h 2.0 mph /  3.2 km/h 78 % 0.00 in /  0 mm
02:50 30.8 °F /  -0.7 °C 24.7 °F /  -4.1 °C 29.68 in /  1005 hPa Calm     78 % 0.00 in /  0 mm
02:55 30.7 °F /  -0.7 °C 24.7 °F /  -4.1 °C 29.67 in /  1004.6 hPa SSW 0.5 mph /  0.8 km/h 1.0 mph /  1.6 km/h 78 % 0.00 in /  0 mm
03:00 30.8 °F /  -0.7 °C 25.1 °F /  -3.8 °C 29.67 in /  1004.6 hPa Calm   1.2 mph /  1.9 km/h 79 % 0.00 in /  0 mm
03:06 30.7 °F /  -0.7 °C 25.0 °F /  -3.9 °C 29.67 in /  1004.6 hPa SSW 0.1 mph /  0.2 km/h 1.2 mph /  1.9 km/h 79 % 0.00 in /  0 mm
03:11 30.7 °F /  -0.7 °C 25.3 °F /  -3.7 °C 29.67 in /  1004.6 hPa Calm     80 % 0.00 in /  0 mm
03:16 30.7 °F /  -0.7 °C 25.3 °F /  -3.7 °C 29.67 in /  1004.6 hPa Calm   1.2 mph /  1.9 km/h 80 % 0.00 in /  0 mm
03:21 30.7 °F /  -0.7 °C 25.3 °F /  -3.7 °C 29.67 in /  1004.6 hPa Calm   1.2 mph /  1.9 km/h 80 % 0.00 in /  0 mm
03:26 30.6 °F /  -0.8 °C 25.2 °F /  -3.8 °C 29.67 in /  1004.6 hPa SSW 0.5 mph /  0.8 km/h 2.3 mph /  3.7 km/h 80 % 0.00 in /  0 mm
03:31 30.6 °F /  -0.8 °C 25.2 °F /  -3.8 °C 29.67 in /  1004.6 hPa SW 0.9 mph /  1.4 km/h 2.3 mph /  3.7 km/h 80 % 0.00 in /  0 mm
03:36 30.6 °F /  -0.8 °C 25.2 °F /  -3.8 °C 29.67 in /  1004.6 hPa SW 0.1 mph /  0.2 km/h 2.0 mph /  3.2 km/h 80 % 0.00 in /  0 mm
03:41 30.6 °F /  -0.8 °C 25.2 °F /  -3.8 °C 29.67 in /  1004.6 hPa SW 1.1 mph /  1.8 km/h 2.3 mph /  3.7 km/h 80 % 0.00 in /  0 mm
03:46 30.6 °F /  -0.8 °C 25.2 °F /  -3.8 °C 29.66 in /  1004.3 hPa Calm     80 % 0.00 in /  0 mm
03:51 30.5 °F /  -0.8 °C 25.1 °F /  -3.8 °C 29.67 in /  1004.6 hPa SW 0.7 mph /  1.1 km/h 2.3 mph /  3.7 km/h 80 % 0.00 in /  0 mm
03:56 30.5 °F /  -0.8 °C 25.1 °F /  -3.8 °C 29.67 in /  1004.6 hPa SW 0.4 mph /  0.6 km/h 2.0 mph /  3.2 km/h 80 % 0.00 in /  0 mm
04:01 30.4 °F /  -0.9 °C 25.0 °F /  -3.9 °C 29.67 in /  1004.6 hPa Calm     80 % 0.00 in /  0 mm
04:06 30.3 °F /  -0.9 °C 24.9 °F /  -3.9 °C 29.67 in /  1004.6 hPa Calm   1.2 mph /  1.9 km/h 80 % 0.00 in /  0 mm
04:11 30.2 °F /  -1 °C 24.8 °F /  -4 °C 29.67 in /  1004.6 hPa SSW 0.3 mph /  0.5 km/h 1.2 mph /  1.9 km/h 80 % 0.00 in /  0 mm
04:16 30.2 °F /  -1 °C 24.8 °F /  -4 °C 29.67 in /  1004.6 hPa SSW 0.7 mph /  1.1 km/h 2.3 mph /  3.7 km/h 80 % 0.00 in /  0 mm
04:21 30.1 °F /  -1.1 °C 25.0 °F /  -3.9 °C 29.67 in /  1004.6 hPa SSW 0.9 mph /  1.4 km/h 3.0 mph /  4.8 km/h 81 % 0.00 in /  0 mm
04:26 30.1 °F /  -1.1 °C 25.0 °F /  -3.9 °C 29.67 in /  1004.6 hPa SSW 0.6 mph /  1 km/h 3.5 mph /  5.6 km/h 81 % 0.00 in /  0 mm
04:31 30.1 °F /  -1.1 °C 25.3 °F /  -3.7 °C 29.68 in /  1005 hPa WSW 1.8 mph /  2.9 km/h 3.5 mph /  5.6 km/h 82 % 0.00 in /  0 mm
04:37 30.1 °F /  -1.1 °C 25.3 °F /  -3.7 °C 29.68 in /  1005 hPa SSW 4.5 mph /  7.2 km/h 4.5 mph /  7.2 km/h 82 % 0.00 in /  0 mm
04:42 30.3 °F /  -0.9 °C 25.5 °F /  -3.6 °C 29.68 in /  1005 hPa SW 2.7 mph /  4.3 km/h 4.0 mph /  6.4 km/h 82 % 0.00 in /  0 mm
04:47 30.5 °F /  -0.8 °C 25.7 °F /  -3.5 °C 29.68 in /  1005 hPa SW 3.4 mph /  5.5 km/h 5.8 mph /  9.3 km/h 82 % 0.00 in /  0 mm
04:52 30.8 °F /  -0.7 °C 26.0 °F /  -3.3 °C 29.68 in /  1005 hPa WSW 3.2 mph /  5.1 km/h 6.0 mph /  9.7 km/h 82 % 0.00 in /  0 mm
04:57 31.2 °F /  -0.4 °C 26.3 °F /  -3.2 °C 29.68 in /  1005 hPa South 3.7 mph /  6 km/h 6.9 mph /  11.1 km/h 82 % 0.00 in /  0 mm
05:02 31.5 °F /  -0.3 °C 26.6 °F /  -3 °C 29.68 in /  1005 hPa SSW 1.8 mph /  2.9 km/h 4.0 mph /  6.4 km/h 82 % 0.00 in /  0 mm
05:07 31.8 °F /  -0.1 °C 26.9 °F /  -2.8 °C 29.68 in /  1005 hPa SW 1.6 mph /  2.6 km/h 3.5 mph /  5.6 km/h 82 % 0.00 in /  0 mm
05:17 32.1 °F /  0.1 °C 26.9 °F /  -2.8 °C 29.68 in /  1005 hPa SW 2.2 mph /  3.5 km/h 3.5 mph /  5.6 km/h 81 % 0.00 in /  0 mm
05:22 32.2 °F /  0.1 °C 27.0 °F /  -2.8 °C 29.68 in /  1005 hPa SW 2.4 mph /  3.9 km/h 4.6 mph /  7.4 km/h 81 % 0.00 in /  0 mm
05:27 32.3 °F /  0.2 °C 26.8 °F /  -2.9 °C 29.68 in /  1005 hPa SW 0.1 mph /  0.2 km/h 1.0 mph /  1.6 km/h 80 % 0.00 in /  0 mm
05:32 32.3 °F /  0.2 °C 26.8 °F /  -2.9 °C 29.68 in /  1005 hPa SW 1.0 mph /  1.6 km/h 4.0 mph /  6.4 km/h 80 % 0.00 in /  0 mm
05:37 32.4 °F /  0.2 °C 26.6 °F /  -3 °C 29.68 in /  1005 hPa SW 1.2 mph /  1.9 km/h 3.5 mph /  5.6 km/h 79 % 0.00 in /  0 mm
05:42 32.4 °F /  0.2 °C 26.6 °F /  -3 °C 29.68 in /  1005 hPa SW 2.6 mph /  4.2 km/h 4.0 mph /  6.4 km/h 79 % 0.00 in /  0 mm
05:47 32.3 °F /  0.2 °C 26.5 °F /  -3.1 °C 29.68 in /  1005 hPa SW 1.8 mph /  2.9 km/h 4.6 mph /  7.4 km/h 79 % 0.00 in /  0 mm
05:52 32.3 °F /  0.2 °C 26.2 °F /  -3.2 °C 29.68 in /  1005 hPa SW 1.5 mph /  2.4 km/h 3.0 mph /  4.8 km/h 78 % 0.00 in /  0 mm
05:57 32.3 °F /  0.2 °C 26.2 °F /  -3.2 °C 29.68 in /  1005 hPa SW 1.2 mph /  1.9 km/h 2.3 mph /  3.7 km/h 78 % 0.00 in /  0 mm
06:07 32.3 °F /  0.2 °C 26.2 °F /  -3.2 °C 29.67 in /  1004.6 hPa SSW 1.2 mph /  1.9 km/h 2.3 mph /  3.7 km/h 78 % 0.00 in /  0 mm
06:12 32.3 °F /  0.2 °C 26.2 °F /  -3.2 °C 29.67 in /  1004.6 hPa SW 1.5 mph /  2.4 km/h 3.5 mph /  5.6 km/h 78 % 0.00 in /  0 mm
06:17 32.3 °F /  0.2 °C 26.2 °F /  -3.2 °C 29.68 in /  1005 hPa South 0.2 mph /  0.3 km/h 3.5 mph /  5.6 km/h 78 % 0.00 in /  0 mm
06:22 32.4 °F /  0.2 °C 26.3 °F /  -3.2 °C 29.67 in /  1004.6 hPa Calm     78 % 0.00 in /  0 mm
06:27 32.4 °F /  0.2 °C 26.3 °F /  -3.2 °C 29.68 in /  1005 hPa SSW 0.7 mph /  1.1 km/h 3.5 mph /  5.6 km/h 78 % 0.00 in /  0 mm
06:33 32.4 °F /  0.2 °C 26.3 °F /  -3.2 °C 29.67 in /  1004.6 hPa SW 2.0 mph /  3.2 km/h 3.5 mph /  5.6 km/h 78 % 0.00 in /  0 mm
06:38 32.4 °F /  0.2 °C 26.3 °F /  -3.2 °C 29.67 in /  1004.6 hPa Calm   1.2 mph /  1.9 km/h 78 % 0.00 in /  0 mm
06:43 32.4 °F /  0.2 °C 26.3 °F /  -3.2 °C 29.67 in /  1004.6 hPa SSW 2.3 mph /  3.7 km/h 3.5 mph /  5.6 km/h 78 % 0.00 in /  0 mm
06:48 32.5 °F /  0.3 °C 26.4 °F /  -3.1 °C 29.67 in /  1004.6 hPa SW 1.7 mph /  2.7 km/h 3.5 mph /  5.6 km/h 78 % 0.00 in /  0 mm
06:53 32.5 °F /  0.3 °C 26.4 °F /  -3.1 °C 29.67 in /  1004.6 hPa SW 1.4 mph /  2.3 km/h 3.5 mph /  5.6 km/h 78 % 0.00 in /  0 mm
06:58 32.5 °F /  0.3 °C 26.4 °F /  -3.1 °C 29.67 in /  1004.6 hPa SSW 1.3 mph /  2.1 km/h 3.5 mph /  5.6 km/h 78 % 0.00 in /  0 mm
07:03 32.6 °F /  0.3 °C 26.5 °F /  -3.1 °C 29.67 in /  1004.6 hPa WSW 1.9 mph /  3.1 km/h 3.5 mph /  5.6 km/h 78 % 0.00 in /  0 mm
07:08 32.6 °F /  0.3 °C 26.2 °F /  -3.2 °C 29.67 in /  1004.6 hPa SW 1.0 mph /  1.6 km/h 3.5 mph /  5.6 km/h 77 % 0.00 in /  0 mm
07:13 32.7 °F /  0.4 °C 26.3 °F /  -3.2 °C 29.67 in /  1004.6 hPa SW 0.6 mph /  1 km/h 2.3 mph /  3.7 km/h 77 % 0.00 in /  0 mm
07:18 32.7 °F /  0.4 °C 26.3 °F /  -3.2 °C 29.67 in /  1004.6 hPa SW 0.8 mph /  1.3 km/h 3.5 mph /  5.6 km/h 77 % 0.00 in /  0 mm
07:23 32.8 °F /  0.4 °C 26.4 °F /  -3.1 °C 29.67 in /  1004.6 hPa SW 0.9 mph /  1.4 km/h 4.6 mph /  7.4 km/h 77 % 0.00 in /  0 mm
07:28 32.9 °F /  0.5 °C 26.5 °F /  -3.1 °C 29.67 in /  1004.6 hPa SW 0.9 mph /  1.4 km/h 3.5 mph /  5.6 km/h 77 % 0.00 in /  0 mm
07:33 33.0 °F /  0.6 °C 26.3 °F /  -3.2 °C 29.68 in /  1005 hPa SW 2.4 mph /  3.9 km/h 3.5 mph /  5.6 km/h 76 % 0.00 in /  0 mm
07:38 33.2 °F /  0.7 °C 26.5 °F /  -3.1 °C 29.67 in /  1004.6 hPa WSW 3.6 mph /  5.8 km/h 4.6 mph /  7.4 km/h 76 % 0.00 in /  0 mm
07:43 33.5 °F /  0.8 °C 26.4 °F /  -3.1 °C 29.68 in /  1005 hPa SW 1.0 mph /  1.6 km/h 3.5 mph /  5.6 km/h 75 % 0.00 in /  0 mm
07:48 33.7 °F /  0.9 °C 26.3 °F /  -3.2 °C 29.68 in /  1005 hPa WSW 0.9 mph /  1.4 km/h 3.5 mph /  5.6 km/h 74 % 0.00 in /  0 mm
07:53 33.9 °F /  1.1 °C 26.5 °F /  -3.1 °C 29.68 in /  1005 hPa SSW 2.7 mph /  4.3 km/h 4.0 mph /  6.4 km/h 74 % 0.00 in /  0 mm
07:58 34.2 °F /  1.2 °C 26.4 °F /  -3.1 °C 29.68 in /  1005 hPa SW 2.5 mph /  4 km/h 6.0 mph /  9.7 km/h 73 % 0.00 in /  0 mm
08:04 34.4 °F /  1.3 °C 27.0 °F /  -2.8 °C 29.68 in /  1005 hPa SSW 3.2 mph /  5.1 km/h 4.0 mph /  6.4 km/h 74 % 0.00 in /  0 mm
08:09 34.6 °F /  1.4 °C 26.8 °F /  -2.9 °C 29.68 in /  1005 hPa SW 3.0 mph /  4.8 km/h 8.0 mph /  12.9 km/h 73 % 0.00 in /  0 mm
08:14 34.8 °F /  1.6 °C 27.0 °F /  -2.8 °C 29.68 in /  1005 hPa SW 1.0 mph /  1.6 km/h 7.0 mph /  11.3 km/h 73 % 0.00 in /  0 mm
08:19 35.1 °F /  1.7 °C 27.3 °F /  -2.6 °C 29.68 in /  1005 hPa SW 1.0 mph /  1.6 km/h 12.0 mph /  19.3 km/h 73 % 0.00 in /  0 mm
08:24 35.4 °F /  1.9 °C 27.3 °F /  -2.6 °C 29.68 in /  1005 hPa South 4.2 mph /  6.8 km/h 4.6 mph /  7.4 km/h 72 % 0.00 in /  0 mm
08:29 35.7 °F /  2.1 °C 27.2 °F /  -2.7 °C 29.69 in /  1005.3 hPa SSW 6.0 mph /  9.7 km/h 12.0 mph /  19.3 km/h 71 % 0.00 in /  0 mm
08:34 36.1 °F /  2.3 °C 27.3 °F /  -2.6 °C 29.69 in /  1005.3 hPa SSW 5.0 mph /  8 km/h 12.0 mph /  19.3 km/h 70 % 0.00 in /  0 mm
08:39 36.4 °F /  2.4 °C 27.2 °F /  -2.7 °C 29.68 in /  1005 hPa SW 6.0 mph /  9.7 km/h 10.0 mph /  16.1 km/h 69 % 0.00 in /  0 mm
08:44 36.8 °F /  2.7 °C 27.6 °F /  -2.4 °C 29.69 in /  1005.3 hPa SW 6.0 mph /  9.7 km/h 12.0 mph /  19.3 km/h 69 % 0.00 in /  0 mm
08:49 37.1 °F /  2.8 °C 27.5 °F /  -2.5 °C 29.69 in /  1005.3 hPa SW 2.0 mph /  3.2 km/h 12.0 mph /  19.3 km/h 68 % 0.00 in /  0 mm
08:54 37.4 °F /  3 °C 27.8 °F /  -2.3 °C 29.69 in /  1005.3 hPa SW 5.0 mph /  8 km/h 13.0 mph /  20.9 km/h 68 % 0.00 in /  0 mm
08:59 37.7 °F /  3.2 °C 28.1 °F /  -2.2 °C 29.69 in /  1005.3 hPa SW 5.9 mph /  9.5 km/h 6.9 mph /  11.1 km/h 68 % 0.00 in /  0 mm
09:09 38.2 °F /  3.4 °C 28.2 °F /  -2.1 °C 29.69 in /  1005.3 hPa SSW 6.0 mph /  9.7 km/h 12.0 mph /  19.3 km/h 67 % 0.00 in /  0 mm
09:14 38.6 °F /  3.7 °C 28.6 °F /  -1.9 °C 29.69 in /  1005.3 hPa SW 5.0 mph /  8 km/h 14.0 mph /  22.5 km/h 67 % 0.00 in /  0 mm
09:24 39.1 °F /  3.9 °C 28.7 °F /  -1.8 °C 29.69 in /  1005.3 hPa SW 5.0 mph /  8 km/h 10.0 mph /  16.1 km/h 66 % 0.00 in /  0 mm
09:29 39.4 °F /  4.1 °C 28.6 °F /  -1.9 °C 29.69 in /  1005.3 hPa SW 5.0 mph /  8 km/h 10.0 mph /  16.1 km/h 65 % 0.00 in /  0 mm
09:39 39.8 °F /  4.3 °C 28.6 °F /  -1.9 °C 29.69 in /  1005.3 hPa WSW 2.0 mph /  3.2 km/h 8.0 mph /  12.9 km/h 64 % 0.00 in /  0 mm
09:44 40.0 °F /  4.4 °C 28.8 °F /  -1.8 °C 29.70 in /  1005.6 hPa WSW 5.0 mph /  8 km/h 10.0 mph /  16.1 km/h 64 % 0.00 in /  0 mm
09:49 40.1 °F /  4.5 °C 28.9 °F /  -1.7 °C 29.69 in /  1005.3 hPa WSW 7.0 mph /  11.3 km/h 10.0 mph /  16.1 km/h 64 % 0.00 in /  0 mm
09:54 40.3 °F /  4.6 °C 29.1 °F /  -1.6 °C 29.69 in /  1005.3 hPa West 5.8 mph /  9.3 km/h 11.5 mph /  18.5 km/h 64 % 0.00 in /  0 mm
09:59 40.6 °F /  4.8 °C 29.0 °F /  -1.7 °C 29.70 in /  1005.6 hPa WNW 5.4 mph /  8.7 km/h 9.2 mph /  14.8 km/h 63 % 0.00 in /  0 mm
10:04 41.1 °F /  5.1 °C 29.5 °F /  -1.4 °C 29.70 in /  1005.6 hPa SSW 2.7 mph /  4.3 km/h 10.4 mph /  16.7 km/h 63 % 0.00 in /  0 mm
10:09 41.4 °F /  5.2 °C 28.5 °F /  -1.9 °C 29.70 in /  1005.6 hPa West 7.4 mph /  11.9 km/h 13.8 mph /  22.2 km/h 60 % 0.00 in /  0 mm
10:14 41.3 °F /  5.2 °C 27.6 °F /  -2.4 °C 29.70 in /  1005.6 hPa West 8.7 mph /  14 km/h 13.8 mph /  22.2 km/h 58 % 0.00 in /  0 mm
10:19 41.4 °F /  5.2 °C 28.1 °F /  -2.2 °C 29.69 in /  1005.3 hPa West 4.1 mph /  6.6 km/h 7.0 mph /  11.3 km/h 59 % 0.00 in /  0 mm
10:24 41.7 °F /  5.4 °C 28.0 °F /  -2.2 °C 29.69 in /  1005.3 hPa West 6.9 mph /  11.1 km/h 11.5 mph /  18.5 km/h 58 % 0.00 in /  0 mm
10:29 42.0 °F /  5.6 °C 27.0 °F /  -2.8 °C 29.69 in /  1005.3 hPa WNW 6.8 mph /  10.9 km/h 10.4 mph /  16.7 km/h 55 % 0.00 in /  0 mm
10:34 42.1 °F /  5.6 °C 26.6 °F /  -3 °C 29.69 in /  1005.3 hPa NW 3.5 mph /  5.6 km/h 8.1 mph /  13 km/h 54 % 0.00 in /  0 mm
10:39 41.9 °F /  5.5 °C 26.9 °F /  -2.8 °C 29.69 in /  1005.3 hPa WSW 7.2 mph /  11.6 km/h 10.4 mph /  16.7 km/h 55 % 0.00 in /  0 mm
10:44 41.8 °F /  5.4 °C 26.8 °F /  -2.9 °C 29.69 in /  1005.3 hPa WSW 5.0 mph /  8 km/h 8.1 mph /  13 km/h 55 % 0.00 in /  0 mm
10:49 41.8 °F /  5.4 °C 26.4 °F /  -3.1 °C 29.69 in /  1005.3 hPa SW 7.8 mph /  12.6 km/h 12.7 mph /  20.4 km/h 54 % 0.00 in /  0 mm
10:54 41.5 °F /  5.3 °C 26.1 °F /  -3.3 °C 29.69 in /  1005.3 hPa WSW 4.2 mph /  6.8 km/h 16.1 mph /  25.9 km/h 54 % 0.00 in /  0 mm
10:59 41.1 °F /  5.1 °C 25.7 °F /  -3.5 °C 29.69 in /  1005.3 hPa WSW 4.5 mph /  7.2 km/h 10.4 mph /  16.7 km/h 54 % 0.00 in /  0 mm
11:04 40.9 °F /  4.9 °C 26.0 °F /  -3.3 °C 29.69 in /  1005.3 hPa WSW 6.4 mph /  10.3 km/h 9.2 mph /  14.8 km/h 55 % 0.00 in /  0 mm
11:09 40.6 °F /  4.8 °C 26.1 °F /  -3.3 °C 29.69 in /  1005.3 hPa West 6.7 mph /  10.8 km/h 9.2 mph /  14.8 km/h 56 % 0.00 in /  0 mm
11:14 40.6 °F /  4.8 °C 26.1 °F /  -3.3 °C 29.69 in /  1005.3 hPa WSW 6.3 mph /  10.1 km/h 11.0 mph /  17.7 km/h 56 % 0.00 in /  0 mm
11:20 40.7 °F /  4.8 °C 25.8 °F /  -3.4 °C 29.69 in /  1005.3 hPa SW 7.7 mph /  12.4 km/h 12.7 mph /  20.4 km/h 55 % 0.00 in /  0 mm
11:25 40.6 °F /  4.8 °C 25.7 °F /  -3.5 °C 29.68 in /  1005 hPa WSW 3.4 mph /  5.5 km/h 9.2 mph /  14.8 km/h 55 % 0.00 in /  0 mm
11:30 40.7 °F /  4.8 °C 25.8 °F /  -3.4 °C 29.68 in /  1005 hPa WSW 8.1 mph /  13 km/h 12.7 mph /  20.4 km/h 55 % 0.00 in /  0 mm
11:35 40.9 °F /  4.9 °C 26.0 °F /  -3.3 °C 29.68 in /  1005 hPa SW 9.1 mph /  14.6 km/h 15.0 mph /  24.1 km/h 55 % 0.00 in /  0 mm
11:40 41.1 °F /  5.1 °C 25.7 °F /  -3.5 °C 29.68 in /  1005 hPa West 7.8 mph /  12.6 km/h 13.0 mph /  20.9 km/h 54 % 0.00 in /  0 mm
11:44 41.2 °F /  5.1 °C 25.8 °F /  -3.4 °C 29.68 in /  1005 hPa West 4.7 mph /  7.6 km/h 9.2 mph /  14.8 km/h 54 % 0.00 in /  0 mm
11:49 41.4 °F /  5.2 °C 26.0 °F /  -3.3 °C 29.68 in /  1005 hPa WSW 6.5 mph /  10.5 km/h 13.8 mph /  22.2 km/h 54 % 0.00 in /  0 mm
11:54 41.6 °F /  5.3 °C 26.2 °F /  -3.2 °C 29.67 in /  1004.6 hPa WSW 9.3 mph /  15 km/h 15.0 mph /  24.1 km/h 54 % 0.00 in /  0 mm
11:59 41.6 °F /  5.3 °C 25.3 °F /  -3.7 °C 29.67 in /  1004.6 hPa SW 5.3 mph /  8.5 km/h 11.5 mph /  18.5 km/h 52 % 0.00 in /  0 mm
12:04 41.7 °F /  5.4 °C 24.4 °F /  -4.2 °C 29.67 in /  1004.6 hPa WSW 6.7 mph /  10.8 km/h 9.2 mph /  14.8 km/h 50 % 0.00 in /  0 mm
12:09 41.8 °F /  5.4 °C 24.0 °F /  -4.4 °C 29.67 in /  1004.6 hPa West 11.0 mph /  17.7 km/h 12.7 mph /  20.4 km/h 49 % 0.00 in /  0 mm
12:14 41.7 °F /  5.4 °C 23.4 °F /  -4.8 °C 29.67 in /  1004.6 hPa WNW 5.8 mph /  9.3 km/h 13.0 mph /  20.9 km/h 48 % 0.00 in /  0 mm
12:19 41.7 °F /  5.4 °C 22.9 °F /  -5.1 °C 29.66 in /  1004.3 hPa WSW 8.7 mph /  14 km/h 17.0 mph /  27.4 km/h 47 % 0.00 in /  0 mm
12:24 41.8 °F /  5.4 °C 22.5 °F /  -5.3 °C 29.66 in /  1004.3 hPa WNW 7.3 mph /  11.7 km/h 11.5 mph /  18.5 km/h 46 % 0.00 in /  0 mm
12:29 42.0 °F /  5.6 °C 23.2 °F /  -4.9 °C 29.66 in /  1004.3 hPa WSW 7.6 mph /  12.2 km/h 9.2 mph /  14.8 km/h 47 % 0.00 in /  0 mm
12:34 42.2 °F /  5.7 °C 23.9 °F /  -4.5 °C 29.66 in /  1004.3 hPa SSW 6.4 mph /  10.3 km/h 8.0 mph /  12.9 km/h 48 % 0.00 in /  0 mm
12:40 42.4 °F /  5.8 °C 23.1 °F /  -4.9 °C 29.65 in /  1003.9 hPa NW 5.7 mph /  9.2 km/h 11.5 mph /  18.5 km/h 46 % 0.00 in /  0 mm
12:45 42.6 °F /  5.9 °C 23.2 °F /  -4.9 °C 29.65 in /  1003.9 hPa NNW 1.6 mph /  2.6 km/h 5.8 mph /  9.3 km/h 46 % 0.00 in /  0 mm
12:50 42.7 °F /  5.9 °C 22.8 °F /  -5.1 °C 29.65 in /  1003.9 hPa WNW 6.7 mph /  10.8 km/h 12.0 mph /  19.3 km/h 45 % 0.00 in /  0 mm
12:55 42.6 °F /  5.9 °C 22.2 °F /  -5.4 °C 29.65 in /  1003.9 hPa WSW 6.8 mph /  10.9 km/h 11.5 mph /  18.5 km/h 44 % 0.00 in /  0 mm
13:00 42.5 °F /  5.8 °C 22.6 °F /  -5.2 °C 29.65 in /  1003.9 hPa West 5.5 mph /  8.9 km/h 10.4 mph /  16.7 km/h 45 % 0.00 in /  0 mm
13:05 42.5 °F /  5.8 °C 22.1 °F /  -5.5 °C 29.65 in /  1003.9 hPa SW 4.0 mph /  6.4 km/h 9.2 mph /  14.8 km/h 44 % 0.00 in /  0 mm
13:10 42.6 °F /  5.9 °C 22.2 °F /  -5.4 °C 29.64 in /  1003.6 hPa WNW 6.4 mph /  10.3 km/h 10.4 mph /  16.7 km/h 44 % 0.00 in /  0 mm
13:15 42.8 °F /  6 °C 22.9 °F /  -5.1 °C 29.64 in /  1003.6 hPa NW 5.6 mph /  9 km/h 8.1 mph /  13 km/h 45 % 0.00 in /  0 mm
13:20 42.8 °F /  6 °C 22.4 °F /  -5.3 °C 29.64 in /  1003.6 hPa West 8.0 mph /  12.9 km/h 12.7 mph /  20.4 km/h 44 % 0.00 in /  0 mm
13:25 42.6 °F /  5.9 °C 22.2 °F /  -5.4 °C 29.64 in /  1003.6 hPa WSW 5.8 mph /  9.3 km/h 9.2 mph /  14.8 km/h 44 % 0.00 in /  0 mm
13:30 42.6 °F /  5.9 °C 22.2 °F /  -5.4 °C 29.64 in /  1003.6 hPa WSW 5.4 mph /  8.7 km/h 9.2 mph /  14.8 km/h 44 % 0.00 in /  0 mm
13:35 42.9 °F /  6.1 °C 23.0 °F /  -5 °C 29.64 in /  1003.6 hPa West 6.8 mph /  10.9 km/h 13.0 mph /  20.9 km/h 45 % 0.00 in /  0 mm
13:40 43.0 °F /  6.1 °C 22.5 °F /  -5.3 °C 29.63 in /  1003.3 hPa West 4.4 mph /  7.1 km/h 5.8 mph /  9.3 km/h 44 % 0.00 in /  0 mm
13:45 43.1 °F /  6.2 °C 23.2 °F /  -4.9 °C 29.63 in /  1003.3 hPa West 2.5 mph /  4 km/h 6.0 mph /  9.7 km/h 45 % 0.00 in /  0 mm
13:55 43.4 °F /  6.3 °C 22.4 °F /  -5.3 °C 29.63 in /  1003.3 hPa SW 7.2 mph /  11.6 km/h 9.0 mph /  14.5 km/h 43 % 0.00 in /  0 mm
14:00 43.5 °F /  6.4 °C 22.5 °F /  -5.3 °C 29.63 in /  1003.3 hPa WNW 4.4 mph /  7.1 km/h 8.1 mph /  13 km/h 43 % 0.00 in /  0 mm
14:06 43.6 °F /  6.4 °C 23.6 °F /  -4.7 °C 29.63 in /  1003.3 hPa WSW 6.1 mph /  9.8 km/h 10.0 mph /  16.1 km/h 45 % 0.00 in /  0 mm
14:11 43.6 °F /  6.4 °C 23.1 °F /  -4.9 °C 29.63 in /  1003.3 hPa WNW 7.3 mph /  11.7 km/h 9.2 mph /  14.8 km/h 44 % 0.00 in /  0 mm
14:16 43.6 °F /  6.4 °C 22.5 °F /  -5.3 °C 29.63 in /  1003.3 hPa SW 2.4 mph /  3.9 km/h 5.0 mph /  8 km/h 43 % 0.00 in /  0 mm
14:21 43.7 °F /  6.5 °C 23.7 °F /  -4.6 °C 29.63 in /  1003.3 hPa NW 4.2 mph /  6.8 km/h 5.8 mph /  9.3 km/h 45 % 0.00 in /  0 mm
14:26 43.6 °F /  6.4 °C 22.0 °F /  -5.6 °C 29.63 in /  1003.3 hPa NW 4.3 mph /  6.9 km/h 8.1 mph /  13 km/h 42 % 0.00 in /  0 mm
14:31 43.4 °F /  6.3 °C 21.2 °F /  -6 °C 29.63 in /  1003.3 hPa WNW 2.1 mph /  3.4 km/h 5.8 mph /  9.3 km/h 41 % 0.00 in /  0 mm
14:36 43.3 °F /  6.3 °C 21.7 °F /  -5.7 °C 29.63 in /  1003.3 hPa WNW 7.4 mph /  11.9 km/h 10.4 mph /  16.7 km/h 42 % 0.00 in /  0 mm
14:41 43.1 °F /  6.2 °C 19.8 °F /  -6.8 °C 29.63 in /  1003.3 hPa West 4.2 mph /  6.8 km/h 8.1 mph /  13 km/h 39 % 0.00 in /  0 mm
14:42 43.1 °F /  6.2 °C 19.8 °F /  -6.8 °C 29.64 in /  1003.6 hPa WNW 3.1 mph /  5 km/h 8.1 mph /  13 km/h 39 % 0.00 in /  0 mm
14:47 42.9 °F /  6.1 °C 19.0 °F /  -7.2 °C 29.64 in /  1003.6 hPa NW 5.1 mph /  8.2 km/h 9.2 mph /  14.8 km/h 38 % 0.00 in /  0 mm
14:52 42.7 °F /  5.9 °C 18.8 °F /  -7.3 °C 29.64 in /  1003.6 hPa NW 3.7 mph /  6 km/h 9.2 mph /  14.8 km/h 38 % 0.00 in /  0 mm
14:57 42.6 °F /  5.9 °C 19.9 °F /  -6.7 °C 29.64 in /  1003.6 hPa WNW 3.2 mph /  5.1 km/h 10.4 mph /  16.7 km/h 40 % 0.00 in /  0 mm
15:02 42.5 °F /  5.8 °C 19.3 °F /  -7.1 °C 29.64 in /  1003.6 hPa NW 4.3 mph /  6.9 km/h 9.2 mph /  14.8 km/h 39 % 0.00 in /  0 mm
15:07 42.4 °F /  5.8 °C 19.2 °F /  -7.1 °C 29.64 in /  1003.6 hPa WNW 6.5 mph /  10.5 km/h 11.5 mph /  18.5 km/h 39 % 0.00 in /  0 mm
15:12 42.2 °F /  5.7 °C 19.0 °F /  -7.2 °C 29.64 in /  1003.6 hPa West 4.2 mph /  6.8 km/h 6.9 mph /  11.1 km/h 39 % 0.00 in /  0 mm
15:17 42.1 °F /  5.6 °C 18.9 °F /  -7.3 °C 29.64 in /  1003.6 hPa WNW 2.3 mph /  3.7 km/h 4.6 mph /  7.4 km/h 39 % 0.00 in /  0 mm
15:22 42.0 °F /  5.6 °C 19.4 °F /  -7 °C 29.65 in /  1003.9 hPa WNW 2.9 mph /  4.7 km/h 4.6 mph /  7.4 km/h 40 % 0.00 in /  0 mm
15:27 41.9 °F /  5.5 °C 19.3 °F /  -7.1 °C 29.65 in /  1003.9 hPa WNW 1.7 mph /  2.7 km/h 3.5 mph /  5.6 km/h 40 % 0.00 in /  0 mm
15:32 41.9 °F /  5.5 °C 18.7 °F /  -7.4 °C 29.65 in /  1003.9 hPa SW 2.6 mph /  4.2 km/h 5.0 mph /  8 km/h 39 % 0.00 in /  0 mm
15:37 41.8 °F /  5.4 °C 18.6 °F /  -7.4 °C 29.65 in /  1003.9 hPa WNW 3.8 mph /  6.1 km/h 6.9 mph /  11.1 km/h 39 % 0.00 in /  0 mm
15:52 41.6 °F /  5.3 °C 19.0 °F /  -7.2 °C 29.66 in /  1004.3 hPa WNW 2.5 mph /  4 km/h 5.8 mph /  9.3 km/h 40 % 0.00 in /  0 mm
15:57 41.6 °F /  5.3 °C 19.6 °F /  -6.9 °C 29.65 in /  1003.9 hPa WNW 2.4 mph /  3.9 km/h 5.0 mph /  8 km/h 41 % 0.00 in /  0 mm
16:03 41.6 °F /  5.3 °C 19.6 °F /  -6.9 °C 29.66 in /  1004.3 hPa NW 2.9 mph /  4.7 km/h 5.8 mph /  9.3 km/h 41 % 0.00 in /  0 mm
16:08 41.5 °F /  5.3 °C 20.1 °F /  -6.6 °C 29.66 in /  1004.3 hPa SW 3.5 mph /  5.6 km/h 6.0 mph /  9.7 km/h 42 % 0.00 in /  0 mm
16:13 41.5 °F /  5.3 °C 20.1 °F /  -6.6 °C 29.66 in /  1004.3 hPa West 1.8 mph /  2.9 km/h 6.9 mph /  11.1 km/h 42 % 0.00 in /  0 mm
16:18 41.4 °F /  5.2 °C 20.0 °F /  -6.7 °C 29.66 in /  1004.3 hPa West 5.4 mph /  8.7 km/h 11.5 mph /  18.5 km/h 42 % 0.00 in /  0 mm
16:23 41.3 °F /  5.2 °C 19.9 °F /  -6.7 °C 29.66 in /  1004.3 hPa West 3.7 mph /  6 km/h 10.0 mph /  16.1 km/h 42 % 0.00 in /  0 mm
16:28 41.2 °F /  5.1 °C 20.4 °F /  -6.4 °C 29.66 in /  1004.3 hPa WNW 5.7 mph /  9.2 km/h 9.2 mph /  14.8 km/h 43 % 0.00 in /  0 mm
16:38 40.9 °F /  4.9 °C 20.1 °F /  -6.6 °C 29.66 in /  1004.3 hPa West 3.8 mph /  6.1 km/h 8.1 mph /  13 km/h 43 % 0.00 in /  0 mm
16:43 40.7 °F /  4.8 °C 19.9 °F /  -6.7 °C 29.66 in /  1004.3 hPa SW 3.7 mph /  6 km/h 8.1 mph /  13 km/h 43 % 0.00 in /  0 mm
16:48 40.6 °F /  4.8 °C 19.8 °F /  -6.8 °C 29.67 in /  1004.6 hPa WSW 3.1 mph /  5 km/h 5.0 mph /  8 km/h 43 % 0.00 in /  0 mm
16:58 40.2 °F /  4.6 °C 19.5 °F /  -6.9 °C 29.67 in /  1004.6 hPa NW 3.6 mph /  5.8 km/h 9.0 mph /  14.5 km/h 43 % 0.00 in /  0 mm
17:03 40.1 °F /  4.5 °C 19.4 °F /  -7 °C 29.67 in /  1004.6 hPa West 5.5 mph /  8.9 km/h 7.0 mph /  11.3 km/h 43 % 0.00 in /  0 mm
17:08 40.0 °F /  4.4 °C 19.8 °F /  -6.8 °C 29.67 in /  1004.6 hPa West 4.5 mph /  7.2 km/h 9.2 mph /  14.8 km/h 44 % 0.00 in /  0 mm
17:13 39.8 °F /  4.3 °C 19.6 °F /  -6.9 °C 29.67 in /  1004.6 hPa WNW 3.0 mph /  4.8 km/h 8.1 mph /  13 km/h 44 % 0.00 in /  0 mm
17:23 39.6 °F /  4.2 °C 20.5 °F /  -6.4 °C 29.67 in /  1004.6 hPa WSW 4.2 mph /  6.8 km/h 6.9 mph /  11.1 km/h 46 % 0.00 in /  0 mm
17:29 39.5 °F /  4.2 °C 20.9 °F /  -6.2 °C 29.68 in /  1005 hPa WNW 1.8 mph /  2.9 km/h 9.2 mph /  14.8 km/h 47 % 0.00 in /  0 mm
17:34 39.4 °F /  4.1 °C 21.8 °F /  -5.7 °C 29.68 in /  1005 hPa West 2.0 mph /  3.2 km/h 4.0 mph /  6.4 km/h 49 % 0.00 in /  0 mm
17:39 39.3 °F /  4.1 °C 22.2 °F /  -5.4 °C 29.68 in /  1005 hPa Calm   5.0 mph /  8 km/h 50 % 0.00 in /  0 mm
17:44 39.2 °F /  4 °C 22.6 °F /  -5.2 °C 29.68 in /  1005 hPa WNW 1.0 mph /  1.6 km/h 7.0 mph /  11.3 km/h 51 % 0.00 in /  0 mm
17:49 39.1 °F /  3.9 °C 23.4 °F /  -4.8 °C 29.68 in /  1005 hPa Calm   5.0 mph /  8 km/h 53 % 0.00 in /  0 mm
17:54 38.9 °F /  3.8 °C 23.7 °F /  -4.6 °C 29.68 in /  1005 hPa WSW 1.0 mph /  1.6 km/h 8.0 mph /  12.9 km/h 54 % 0.00 in /  0 mm
17:59 38.8 °F /  3.8 °C 23.6 °F /  -4.7 °C 29.68 in /  1005 hPa SW 0.4 mph /  0.6 km/h 2.3 mph /  3.7 km/h 54 % 0.00 in /  0 mm
18:04 38.6 °F /  3.7 °C 22.9 °F /  -5.1 °C 29.68 in /  1005 hPa SW 0.4 mph /  0.6 km/h 2.3 mph /  3.7 km/h 53 % 0.00 in /  0 mm
18:09 38.4 °F /  3.6 °C 22.3 °F /  -5.4 °C 29.68 in /  1005 hPa Calm   1.2 mph /  1.9 km/h 52 % 0.00 in /  0 mm
18:14 38.2 °F /  3.4 °C 21.6 °F /  -5.8 °C 29.68 in /  1005 hPa SW 0.2 mph /  0.3 km/h 1.2 mph /  1.9 km/h 51 % 0.00 in /  0 mm
18:19 37.9 °F /  3.3 °C 21.8 °F /  -5.7 °C 29.69 in /  1005.3 hPa SW 0.3 mph /  0.5 km/h 2.3 mph /  3.7 km/h 52 % 0.00 in /  0 mm
18:24 37.6 °F /  3.1 °C 21.1 °F /  -6.1 °C 29.69 in /  1005.3 hPa Calm   1.2 mph /  1.9 km/h 51 % 0.00 in /  0 mm
18:29 37.4 °F /  3 °C 20.9 °F /  -6.2 °C 29.69 in /  1005.3 hPa WSW 1.2 mph /  1.9 km/h 3.0 mph /  4.8 km/h 51 % 0.00 in /  0 mm
18:34 37.3 °F /  2.9 °C 21.3 °F /  -5.9 °C 29.69 in /  1005.3 hPa WSW 1.8 mph /  2.9 km/h 3.5 mph /  5.6 km/h 52 % 0.00 in /  0 mm
18:39 37.1 °F /  2.8 °C 21.5 °F /  -5.8 °C 29.69 in /  1005.3 hPa SW 0.1 mph /  0.2 km/h   53 % 0.00 in /  0 mm
18:44 37.0 °F /  2.8 °C 21.4 °F /  -5.9 °C 29.69 in /  1005.3 hPa SW 0.1 mph /  0.2 km/h 1.2 mph /  1.9 km/h 53 % 0.00 in /  0 mm
18:49 36.9 °F /  2.7 °C 21.3 °F /  -5.9 °C 29.69 in /  1005.3 hPa SW 1.8 mph /  2.9 km/h 4.0 mph /  6.4 km/h 53 % 0.00 in /  0 mm
18:59 36.6 °F /  2.6 °C 21.1 °F /  -6.1 °C 29.69 in /  1005.3 hPa SW 1.3 mph /  2.1 km/h 2.3 mph /  3.7 km/h 53 % 0.00 in /  0 mm
19:05 36.4 °F /  2.4 °C 20.9 °F /  -6.2 °C 29.69 in /  1005.3 hPa SW 0.3 mph /  0.5 km/h 1.2 mph /  1.9 km/h 53 % 0.00 in /  0 mm
19:10 36.2 °F /  2.3 °C 20.7 °F /  -6.3 °C 29.69 in /  1005.3 hPa SW 0.3 mph /  0.5 km/h 3.5 mph /  5.6 km/h 53 % 0.00 in /  0 mm
19:15 36.0 °F /  2.2 °C 20.5 °F /  -6.4 °C 29.69 in /  1005.3 hPa SW 0.2 mph /  0.3 km/h 1.2 mph /  1.9 km/h 53 % 0.00 in /  0 mm
19:20 35.9 °F /  2.2 °C 20.4 °F /  -6.4 °C 29.70 in /  1005.6 hPa SW 0.2 mph /  0.3 km/h 2.3 mph /  3.7 km/h 53 % 0.00 in /  0 mm
19:25 35.7 °F /  2.1 °C 20.2 °F /  -6.6 °C 29.70 in /  1005.6 hPa SW 0.3 mph /  0.5 km/h 1.2 mph /  1.9 km/h 53 % 0.00 in /  0 mm
19:30 35.5 °F /  1.9 °C 20.5 °F /  -6.4 °C 29.70 in /  1005.6 hPa SW 0.6 mph /  1 km/h 2.3 mph /  3.7 km/h 54 % 0.00 in /  0 mm
19:35 35.3 °F /  1.8 °C 20.3 °F /  -6.5 °C 29.70 in /  1005.6 hPa SW 1.0 mph /  1.6 km/h 3.5 mph /  5.6 km/h 54 % 0.00 in /  0 mm
19:40 35.1 °F /  1.7 °C 20.5 °F /  -6.4 °C 29.70 in /  1005.6 hPa SW 0.5 mph /  0.8 km/h 2.3 mph /  3.7 km/h 55 % 0.00 in /  0 mm
19:45 35.0 °F /  1.7 °C 20.4 °F /  -6.4 °C 29.70 in /  1005.6 hPa SW 0.1 mph /  0.2 km/h 2.3 mph /  3.7 km/h 55 % 0.00 in /  0 mm
19:50 34.8 °F /  1.6 °C 20.3 °F /  -6.5 °C 29.70 in /  1005.6 hPa SW 0.6 mph /  1 km/h 1.2 mph /  1.9 km/h 55 % 0.00 in /  0 mm
19:55 34.7 °F /  1.5 °C 20.2 °F /  -6.6 °C 29.70 in /  1005.6 hPa SW 0.1 mph /  0.2 km/h 1.2 mph /  1.9 km/h 55 % 0.00 in /  0 mm
20:00 34.6 °F /  1.4 °C 20.1 °F /  -6.6 °C 29.70 in /  1005.6 hPa SW 0.2 mph /  0.3 km/h 2.3 mph /  3.7 km/h 55 % 0.00 in /  0 mm
20:05 34.5 °F /  1.4 °C 20.0 °F /  -6.7 °C 29.70 in /  1005.6 hPa SW 0.9 mph /  1.4 km/h 4.0 mph /  6.4 km/h 55 % 0.00 in /  0 mm
20:10 34.4 °F /  1.3 °C 20.3 °F /  -6.5 °C 29.70 in /  1005.6 hPa SW 0.2 mph /  0.3 km/h 2.3 mph /  3.7 km/h 56 % 0.00 in /  0 mm
20:15 34.2 °F /  1.2 °C 20.1 °F /  -6.6 °C 29.70 in /  1005.6 hPa SW 1.0 mph /  1.6 km/h 2.3 mph /  3.7 km/h 56 % 0.00 in /  0 mm
20:27 34.1 °F /  1.2 °C 20.4 °F /  -6.4 °C 29.70 in /  1005.6 hPa SW 0.8 mph /  1.3 km/h 2.3 mph /  3.7 km/h 57 % 0.00 in /  0 mm
20:32 33.9 °F /  1.1 °C 20.3 °F /  -6.5 °C 29.70 in /  1005.6 hPa SW 0.4 mph /  0.6 km/h 2.3 mph /  3.7 km/h 57 % 0.00 in /  0 mm
20:37 33.9 °F /  1.1 °C 20.7 °F /  -6.3 °C 29.70 in /  1005.6 hPa SW 0.2 mph /  0.3 km/h 1.2 mph /  1.9 km/h 58 % 0.00 in /  0 mm
20:42 33.8 °F /  1 °C 20.6 °F /  -6.3 °C 29.70 in /  1005.6 hPa SW 0.4 mph /  0.6 km/h 1.2 mph /  1.9 km/h 58 % 0.00 in /  0 mm
20:47 33.6 °F /  0.9 °C 20.4 °F /  -6.4 °C 29.70 in /  1005.6 hPa SW 0.6 mph /  1 km/h 1.2 mph /  1.9 km/h 58 % 0.00 in /  0 mm
20:52 33.5 °F /  0.8 °C 20.7 °F /  -6.3 °C 29.70 in /  1005.6 hPa SW 0.2 mph /  0.3 km/h 1.2 mph /  1.9 km/h 59 % 0.00 in /  0 mm
20:57 33.4 °F /  0.8 °C 20.6 °F /  -6.3 °C 29.70 in /  1005.6 hPa SW 0.9 mph /  1.4 km/h 3.5 mph /  5.6 km/h 59 % 0.00 in /  0 mm
21:07 33.3 °F /  0.7 °C 20.9 °F /  -6.2 °C 29.70 in /  1005.6 hPa SW 0.6 mph /  1 km/h 2.3 mph /  3.7 km/h 60 % 0.00 in /  0 mm
21:12 33.2 °F /  0.7 °C 20.4 °F /  -6.4 °C 29.70 in /  1005.6 hPa SW 0.2 mph /  0.3 km/h 1.2 mph /  1.9 km/h 59 % 0.00 in /  0 mm
21:17 33.1 °F /  0.6 °C 20.3 °F /  -6.5 °C 29.70 in /  1005.6 hPa SW 0.2 mph /  0.3 km/h 1.2 mph /  1.9 km/h 59 % 0.00 in /  0 mm
21:23 33.0 °F /  0.6 °C 20.6 °F /  -6.3 °C 29.70 in /  1005.6 hPa SW 0.3 mph /  0.5 km/h 2.3 mph /  3.7 km/h 60 % 0.00 in /  0 mm
21:28 33.0 °F /  0.6 °C 20.6 °F /  -6.3 °C 29.69 in /  1005.3 hPa Calm     60 % 0.00 in /  0 mm
21:33 32.9 °F /  0.5 °C 20.5 °F /  -6.4 °C 29.69 in /  1005.3 hPa Calm   1.2 mph /  1.9 km/h 60 % 0.00 in /  0 mm
21:38 32.8 °F /  0.4 °C 20.4 °F /  -6.4 °C 29.69 in /  1005.3 hPa Calm   1.2 mph /  1.9 km/h 60 % 0.00 in /  0 mm
21:48 32.5 °F /  0.3 °C 20.5 °F /  -6.4 °C 29.69 in /  1005.3 hPa Calm     61 % 0.00 in /  0 mm
21:53 32.4 °F /  0.2 °C 20.8 °F /  -6.2 °C 29.69 in /  1005.3 hPa Calm   1.0 mph /  1.6 km/h 62 % 0.00 in /  0 mm
21:58 32.3 °F /  0.2 °C 20.7 °F /  -6.3 °C 29.69 in /  1005.3 hPa SW 0.2 mph /  0.3 km/h 2.0 mph /  3.2 km/h 62 % 0.00 in /  0 mm
22:03 32.1 °F /  0.1 °C 20.5 °F /  -6.4 °C 29.69 in /  1005.3 hPa SW 0.1 mph /  0.2 km/h 1.2 mph /  1.9 km/h 62 % 0.00 in /  0 mm
22:08 32.0 °F /  0 °C 20.8 °F /  -6.2 °C 29.69 in /  1005.3 hPa Calm   1.2 mph /  1.9 km/h 63 % 0.00 in /  0 mm
22:22 31.7 °F /  -0.2 °C 20.9 °F /  -6.2 °C 29.70 in /  1005.6 hPa Calm     64 % 0.00 in /  0 mm
22:27 31.6 °F /  -0.2 °C 20.8 °F /  -6.2 °C 29.70 in /  1005.6 hPa SW 0.5 mph /  0.8 km/h 1.2 mph /  1.9 km/h 64 % 0.00 in /  0 mm
22:29 31.6 °F /  -0.2 °C 20.8 °F /  -6.2 °C 29.69 in /  1005.3 hPa Calm   1.2 mph /  1.9 km/h 64 % 0.00 in /  0 mm
22:30 31.5 °F /  -0.3 °C 20.7 °F /  -6.3 °C 29.70 in /  1005.6 hPa Calm     64 % 0.00 in /  0 mm
22:35 31.4 °F /  -0.3 °C 21.0 °F /  -6.1 °C 29.70 in /  1005.6 hPa Calm     65 % 0.00 in /  0 mm
22:50 31.1 °F /  -0.5 °C 21.1 °F /  -6.1 °C 29.70 in /  1005.6 hPa SW 0.1 mph /  0.2 km/h 1.2 mph /  1.9 km/h 66 % 0.00 in /  0 mm
22:56 31.0 °F /  -0.6 °C 20.6 °F /  -6.3 °C 29.70 in /  1005.6 hPa SW 0.1 mph /  0.2 km/h 1.2 mph /  1.9 km/h 65 % 0.00 in /  0 mm
23:01 30.9 °F /  -0.6 °C 20.9 °F /  -6.2 °C 29.70 in /  1005.6 hPa SW 0.1 mph /  0.2 km/h 1.2 mph /  1.9 km/h 66 % 0.00 in /  0 mm
23:06 30.8 °F /  -0.7 °C 20.8 °F /  -6.2 °C 29.70 in /  1005.6 hPa Calm     66 % 0.00 in /  0 mm
23:11 30.7 °F /  -0.7 °C 21.0 °F /  -6.1 °C 29.70 in /  1005.6 hPa SW 0.1 mph /  0.2 km/h 1.2 mph /  1.9 km/h 67 % 0.00 in /  0 mm
23:16 30.7 °F /  -0.7 °C 21.0 °F /  -6.1 °C 29.70 in /  1005.6 hPa Calm     67 % 0.00 in /  0 mm
23:21 30.6 °F /  -0.8 °C 20.9 °F /  -6.2 °C 29.70 in /  1005.6 hPa Calm     67 % 0.00 in /  0 mm
23:26 30.6 °F /  -0.8 °C 20.9 °F /  -6.2 °C 29.70 in /  1005.6 hPa SW 0.7 mph /  1.1 km/h 2.3 mph /  3.7 km/h 67 % 0.00 in /  0 mm
23:31 30.6 °F /  -0.8 °C 21.3 °F /  -5.9 °C 29.70 in /  1005.6 hPa Calm     68 % 0.00 in /  0 mm
23:36 30.5 °F /  -0.8 °C 21.2 °F /  -6 °C 29.70 in /  1005.6 hPa Calm     68 % 0.00 in /  0 mm
23:41 30.5 °F /  -0.8 °C 21.2 °F /  -6 °C 29.70 in /  1005.6 hPa SW 0.3 mph /  0.5 km/h 2.0 mph /  3.2 km/h 68 % 0.00 in /  0 mm
23:51 30.6 °F /  -0.8 °C 21.3 °F /  -5.9 °C 29.70 in /  1005.6 hPa SW 1.0 mph /  1.6 km/h 2.3 mph /  3.7 km/h 68 % 0.00 in /  0 mm
23:56 30.6 °F /  -0.8 °C 21.3 °F /  -5.9 °C 29.70 in /  1005.6 hPa SW 1.4 mph /  2.3 km/h 3.0 mph /  4.8 km/h 68 % 0.00 in /  0 mm
Crab Meadow Weather
Compliments of Weather Underground - 2.75 mb

Script developed by  Jim McMurry - jmcmurry@mwt.net Adapted for the template by  Wim van der Kuil - Leuven-Template.eu

Weather Terms: Flash Flood Warning - Flash flooding is occurring, imminent or highly likely. A flash flood is a flood that occurs within 6 hours of excessive rainfall and that poses a threat to life and/or property. Ice jams and dam failures can also cause flash floods. These warnings are issued on a county by county basis by the local Weather Forecast Office in Upton and are generally in effect for up to 6 hours.